createdAt,value
2018-12-25T00:00:33.597Z,8.83
2018-12-25T00:01:38.788Z,8.13
2018-12-25T00:02:43.967Z,10.27
2018-12-25T00:03:49.139Z,10.93
2018-12-25T00:04:54.350Z,8.03
2018-12-25T00:05:59.529Z,9.70
2018-12-25T00:07:04.706Z,8.50
2018-12-25T00:08:09.973Z,10.17
2018-12-25T00:09:15.254Z,11.23
2018-12-25T00:10:20.557Z,8.07
2018-12-25T00:11:25.776Z,8.43
2018-12-25T00:12:31.007Z,9.93
2018-12-25T00:13:36.279Z,10.30
2018-12-25T00:14:41.547Z,10.57
2018-12-25T00:15:46.797Z,8.40
2018-12-25T00:16:52.098Z,7.23
2018-12-25T00:17:57.254Z,9.50
2018-12-25T00:19:06.194Z,11.57
2018-12-25T00:20:09.426Z,10.23
2018-12-25T00:21:14.786Z,7.40
2018-12-25T00:22:19.884Z,9.93
2018-12-25T00:23:25.143Z,9.07
2018-12-25T00:24:30.374Z,10.03
2018-12-25T00:25:35.653Z,8.53
2018-12-25T00:26:41.955Z,8.33
2018-12-25T00:27:47.183Z,9.90
2018-12-25T00:28:52.544Z,8.40
2018-12-25T00:29:57.748Z,8.87
2018-12-25T00:31:02.894Z,9.47
2018-12-25T00:32:08.128Z,8.17
2018-12-25T00:33:13.340Z,9.50
2018-12-25T00:34:18.600Z,10.47
2018-12-25T00:35:23.958Z,10.17
2018-12-25T00:36:29.196Z,11.97
2018-12-25T00:37:34.475Z,9.63
2018-12-25T00:38:39.652Z,12.40
2018-12-25T00:39:44.842Z,10.80
2018-12-25T00:40:49.994Z,7.37
2018-12-25T00:41:55.145Z,6.90
2018-12-25T00:43:00.297Z,9.60
2018-12-25T00:44:05.535Z,9.67
2018-12-25T00:45:10.782Z,8.73
2018-12-25T00:46:15.955Z,8.53
2018-12-25T00:47:21.166Z,9.63
2018-12-25T00:48:26.332Z,9.30
2018-12-25T00:49:31.524Z,11.67
2018-12-25T00:50:36.751Z,6.50
2018-12-25T00:51:41.919Z,10.10
2018-12-25T00:52:46.984Z,7.17
2018-12-25T00:53:52.288Z,8.53
2018-12-25T00:54:57.475Z,6.13
2018-12-25T00:56:02.703Z,7.40
2018-12-25T00:57:07.855Z,9.27
2018-12-25T00:58:13.090Z,9.70
2018-12-25T00:59:18.365Z,10.40
2018-12-25T01:00:23.611Z,8.13
2018-12-25T01:01:28.864Z,7.77
2018-12-25T01:02:34.051Z,7.90
2018-12-25T01:03:39.349Z,7.60
2018-12-25T01:04:44.601Z,9.30
2018-12-25T01:05:49.780Z,9.90
2018-12-25T01:06:55.007Z,7.37
2018-12-25T01:08:00.258Z,10.30
2018-12-25T01:09:06.777Z,7.80
2018-12-25T01:10:12.043Z,8.27
2018-12-25T01:11:17.381Z,6.40
2018-12-25T01:12:22.690Z,7.67
2018-12-25T01:13:27.840Z,7.10
2018-12-25T01:14:33.081Z,8.97
2018-12-25T01:15:38.242Z,8.73
2018-12-25T01:16:43.493Z,8.43
2018-12-25T01:17:48.637Z,5.87
2018-12-25T01:18:53.897Z,10.53
2018-12-25T01:19:59.143Z,8.40
2018-12-25T01:21:04.361Z,9.27
2018-12-25T01:22:09.722Z,8.07
2018-12-25T01:23:14.960Z,8.10
2018-12-25T01:24:20.171Z,9.40
2018-12-25T01:25:25.405Z,8.27
2018-12-25T01:26:30.555Z,8.17
2018-12-25T01:27:35.712Z,8.57
2018-12-25T01:28:41.892Z,9.33
2018-12-25T01:29:47.252Z,14.27
2018-12-25T01:30:52.428Z,8.60
2018-12-25T01:31:57.648Z,9.70
2018-12-25T01:33:03.850Z,8.47
2018-12-25T01:34:09.146Z,10.00
2018-12-25T01:35:14.372Z,10.20
2018-12-25T01:36:19.583Z,8.23
2018-12-25T01:37:24.801Z,7.03
2018-12-25T01:38:30.101Z,9.27
2018-12-25T01:39:35.359Z,8.00
2018-12-25T01:40:40.656Z,7.57
2018-12-25T01:41:45.882Z,12.40
2018-12-25T01:42:51.022Z,7.50
2018-12-25T01:43:56.175Z,7.33
2018-12-25T01:45:01.431Z,5.73
2018-12-25T01:46:06.637Z,10.00
2018-12-25T01:47:11.781Z,11.60
2018-12-25T01:48:17.038Z,8.27
2018-12-25T01:49:22.198Z,9.83
2018-12-25T01:50:27.382Z,8.10
2018-12-25T01:51:32.649Z,8.33
2018-12-25T01:52:37.917Z,6.97
2018-12-25T01:53:43.069Z,6.77
2018-12-25T01:54:48.231Z,7.70
2018-12-25T01:55:53.526Z,10.00
2018-12-25T01:56:58.803Z,7.43
2018-12-25T01:58:04.024Z,7.77
2018-12-25T01:59:09.162Z,12.43
2018-12-25T02:00:14.426Z,7.30
2018-12-25T02:01:19.716Z,9.60
2018-12-25T02:02:25.093Z,6.97
2018-12-25T02:03:30.298Z,9.03
2018-12-25T02:04:35.569Z,7.20
2018-12-25T02:05:40.728Z,10.10
2018-12-25T02:06:45.979Z,7.67
2018-12-25T02:07:51.215Z,7.33
2018-12-25T02:08:56.387Z,9.07
2018-12-25T02:10:01.657Z,6.83
2018-12-25T02:11:06.927Z,9.13
2018-12-25T02:12:12.167Z,7.97
2018-12-25T02:13:17.424Z,13.07
2018-12-25T02:14:22.652Z,9.67
2018-12-25T02:15:27.822Z,10.83
2018-12-25T02:16:33.026Z,9.20
2018-12-25T02:17:38.235Z,8.60
2018-12-25T02:18:43.363Z,11.60
2018-12-25T02:19:48.437Z,6.93
2018-12-25T02:20:53.638Z,7.63
2018-12-25T02:21:58.865Z,8.67
2018-12-25T02:23:04.135Z,8.80
2018-12-25T02:24:09.395Z,9.10
2018-12-25T02:25:14.672Z,8.27
2018-12-25T02:26:19.983Z,7.57
2018-12-25T02:27:25.162Z,7.80
2018-12-25T02:28:30.406Z,7.03
2018-12-25T02:29:35.671Z,7.90
2018-12-25T02:30:40.860Z,8.47
2018-12-25T02:31:46.121Z,10.13
2018-12-25T02:32:51.267Z,7.60
2018-12-25T02:33:56.399Z,7.63
2018-12-25T02:35:01.820Z,7.97
2018-12-25T02:36:07.064Z,12.27
2018-12-25T02:37:12.333Z,7.13
2018-12-25T02:38:17.657Z,7.20
2018-12-25T02:39:22.962Z,10.60
2018-12-25T02:40:28.160Z,8.63
2018-12-25T02:41:33.395Z,10.80
2018-12-25T02:42:38.660Z,10.10
2018-12-25T02:43:43.776Z,12.57
2018-12-25T02:44:49.023Z,10.03
2018-12-25T02:45:54.256Z,7.40
2018-12-25T02:46:59.470Z,10.00
2018-12-25T02:48:04.651Z,8.63
2018-12-25T02:49:09.915Z,11.37
2018-12-25T02:50:15.262Z,10.90
2018-12-25T02:51:20.553Z,8.10
2018-12-25T02:52:25.849Z,9.00
2018-12-25T02:53:31.046Z,10.17
2018-12-25T02:54:36.288Z,10.20
2018-12-25T02:55:41.573Z,9.60
2018-12-25T02:56:46.766Z,7.40
2018-12-25T02:57:52.016Z,11.27
2018-12-25T02:58:57.210Z,11.07
2018-12-25T03:00:02.545Z,11.03
2018-12-25T03:01:08.143Z,8.70
2018-12-25T03:02:13.381Z,9.10
2018-12-25T03:03:18.616Z,12.33
2018-12-25T03:04:23.798Z,9.37
2018-12-25T03:05:28.960Z,5.73
2018-12-25T03:06:34.136Z,7.57
2018-12-25T03:07:39.305Z,8.07
2018-12-25T03:08:44.451Z,11.13
2018-12-25T03:09:49.628Z,9.23
2018-12-25T03:10:54.881Z,7.40
2018-12-25T03:12:00.149Z,7.37
2018-12-25T03:13:05.332Z,10.33
2018-12-25T03:14:10.536Z,8.70
2018-12-25T03:15:15.735Z,9.47
2018-12-25T03:16:21.077Z,8.97
2018-12-25T03:17:26.275Z,9.20
2018-12-25T03:18:31.528Z,12.53
2018-12-25T03:19:36.766Z,9.40
2018-12-25T03:20:42.077Z,10.13
2018-12-25T03:21:47.338Z,9.33
2018-12-25T03:22:52.595Z,9.27
2018-12-25T03:23:57.837Z,7.90
2018-12-25T03:25:04.013Z,9.30
2018-12-25T03:26:09.245Z,10.20
2018-12-25T03:27:14.478Z,10.00
2018-12-25T03:28:19.737Z,11.37
2018-12-25T03:29:24.820Z,9.23
2018-12-25T03:30:30.038Z,9.37
2018-12-25T03:31:35.206Z,10.90
2018-12-25T03:32:40.460Z,9.53
2018-12-25T03:33:45.764Z,9.37
2018-12-25T03:34:51.028Z,9.53
2018-12-25T03:35:56.257Z,10.60
2018-12-25T03:37:01.517Z,9.30
2018-12-25T03:38:06.650Z,8.27
2018-12-25T03:39:11.894Z,9.40
2018-12-25T03:40:17.137Z,9.30
2018-12-25T03:41:22.375Z,10.87
2018-12-25T03:42:27.600Z,10.03
2018-12-25T03:43:32.727Z,10.10
2018-12-25T03:44:38.975Z,8.17
2018-12-25T03:45:44.239Z,10.23
2018-12-25T03:46:49.478Z,9.17
2018-12-25T03:47:54.673Z,8.03
2018-12-25T03:48:59.925Z,10.17
2018-12-25T03:50:10.910Z,11.53
2018-12-25T03:51:13.069Z,7.97
2018-12-25T03:52:18.223Z,11.20
2018-12-25T03:53:23.404Z,11.33
2018-12-25T03:54:28.582Z,15.00
2018-12-25T03:55:33.820Z,13.07
2018-12-25T03:56:39.074Z,11.27
2018-12-25T03:57:44.285Z,10.45
2018-12-25T03:58:49.357Z,10.83
2018-12-25T03:59:54.594Z,12.37
2018-12-25T04:00:59.887Z,12.13
2018-12-25T04:02:05.079Z,11.63
2018-12-25T04:03:10.292Z,11.80
2018-12-25T04:04:15.427Z,11.10
2018-12-25T04:05:20.630Z,8.43
2018-12-25T04:06:25.871Z,11.68
2018-12-25T04:07:31.135Z,9.97
2018-12-25T04:08:36.284Z,11.43
2018-12-25T04:09:41.515Z,10.37
2018-12-25T04:10:46.818Z,15.00
2018-12-25T04:11:52.089Z,11.47
2018-12-25T04:12:57.250Z,10.47
2018-12-25T04:14:02.522Z,10.60
2018-12-25T04:15:08.065Z,11.75
2018-12-25T04:16:13.323Z,10.90
2018-12-25T04:17:18.591Z,13.40
2018-12-25T04:18:23.837Z,10.53
2018-12-25T04:19:29.120Z,9.37
2018-12-25T04:20:34.399Z,11.90
2018-12-25T04:21:39.674Z,10.60
2018-12-25T04:22:44.843Z,10.63
2018-12-25T04:23:50.121Z,12.03
2018-12-25T04:24:55.225Z,10.57
2018-12-25T04:26:00.431Z,10.78
2018-12-25T04:27:05.986Z,15.50
2018-12-25T04:28:11.268Z,11.20
2018-12-25T04:29:16.453Z,9.23
2018-12-25T04:30:21.695Z,15.60
2018-12-25T04:31:26.962Z,11.13
2018-12-25T04:32:32.216Z,8.73
2018-12-25T04:33:37.416Z,11.93
2018-12-25T04:34:42.710Z,12.67
2018-12-25T04:35:47.960Z,10.70
2018-12-25T04:36:53.113Z,11.13
2018-12-25T04:37:58.294Z,13.20
2018-12-25T04:39:04.101Z,10.40
2018-12-25T04:40:09.446Z,9.73
2018-12-25T04:41:14.681Z,13.00
2018-12-25T04:42:19.930Z,11.65
2018-12-25T04:43:25.109Z,11.13
2018-12-25T04:44:30.392Z,9.33
2018-12-25T04:45:35.619Z,10.27
2018-12-25T04:46:40.811Z,10.23
2018-12-25T04:47:46.071Z,11.57
2018-12-25T04:48:51.168Z,9.93
2018-12-25T04:49:56.436Z,9.20
2018-12-25T04:51:01.710Z,9.80
2018-12-25T04:52:07.023Z,10.27
2018-12-25T04:53:12.191Z,9.27
2018-12-25T04:54:17.451Z,11.53
2018-12-25T04:55:22.628Z,12.53
2018-12-25T04:56:27.912Z,11.17
2018-12-25T04:57:33.129Z,12.87
2018-12-25T04:58:39.338Z,8.43
2018-12-25T04:59:44.584Z,11.17
2018-12-25T05:00:49.833Z,11.60
2018-12-25T05:01:55.087Z,10.82
2018-12-25T05:03:00.293Z,11.70
2018-12-25T05:04:05.447Z,9.43
2018-12-25T05:05:10.777Z,10.50
2018-12-25T05:06:15.975Z,10.27
2018-12-25T05:07:21.201Z,11.30
2018-12-25T05:08:26.461Z,14.10
2018-12-25T05:09:31.809Z,11.33
2018-12-25T05:10:37.093Z,10.17
2018-12-25T05:11:42.336Z,11.90
2018-12-25T05:12:47.546Z,9.77
2018-12-25T05:13:52.801Z,11.10
2018-12-25T05:14:57.904Z,12.07
2018-12-25T05:16:03.155Z,10.17
2018-12-25T05:17:08.357Z,11.03
2018-12-25T05:18:13.634Z,9.47
2018-12-25T05:19:18.878Z,9.70
2018-12-25T05:20:23.993Z,9.70
2018-12-25T05:21:29.282Z,11.90
2018-12-25T05:22:34.542Z,11.67
2018-12-25T05:23:39.913Z,9.70
2018-12-25T05:24:45.160Z,10.23
2018-12-25T05:25:50.460Z,9.07
2018-12-25T05:26:55.751Z,11.08
2018-12-25T05:28:01.058Z,9.90
2018-12-25T05:29:25.420Z,9.27
2018-12-25T05:30:42.145Z,11.15
2018-12-25T05:31:59.578Z,9.13
2018-12-25T05:33:16.229Z,13.30
2018-12-25T05:34:33.697Z,10.45
2018-12-25T05:35:50.216Z,12.98
2018-12-25T05:37:07.578Z,12.90
2018-12-25T05:38:24.226Z,10.90
2018-12-25T05:39:40.797Z,11.90
2018-12-25T05:40:57.350Z,12.83
2018-12-25T05:42:14.802Z,10.53
2018-12-25T05:43:31.557Z,10.73
2018-12-25T05:44:48.219Z,11.27
2018-12-25T05:46:04.983Z,13.00
2018-12-25T05:47:22.549Z,10.77
2018-12-25T05:48:39.524Z,13.07
2018-12-25T05:49:56.004Z,10.80
2018-12-25T05:51:12.518Z,11.30
2018-12-25T05:52:29.095Z,10.10
2018-12-25T05:53:45.755Z,11.87
2018-12-25T05:55:02.332Z,12.30
2018-12-25T05:56:18.860Z,10.30
2018-12-25T05:57:35.338Z,13.30
2018-12-25T05:58:51.982Z,11.80
2018-12-25T06:00:09.449Z,11.83
2018-12-25T06:01:26.996Z,14.17
2018-12-25T06:02:44.422Z,11.40
2018-12-25T06:04:01.068Z,11.03
2018-12-25T06:05:17.764Z,11.50
2018-12-25T06:06:34.534Z,11.00
2018-12-25T06:07:51.500Z,11.30
2018-12-25T06:09:08.115Z,12.98
2018-12-25T06:10:24.837Z,9.37
2018-12-25T06:11:41.413Z,14.13
2018-12-25T06:12:58.247Z,11.03
2018-12-25T06:14:15.665Z,8.67
2018-12-25T06:15:32.290Z,11.83
2018-12-25T06:16:49.742Z,11.60
2018-12-25T06:18:06.210Z,9.73
2018-12-25T06:19:23.085Z,9.75
2018-12-25T06:20:39.591Z,12.97
2018-12-25T06:21:57.049Z,10.07
2018-12-25T06:23:14.523Z,11.43
2018-12-25T06:24:19.893Z,12.03
2018-12-25T06:25:44.238Z,11.90
2018-12-25T06:28:17.436Z,8.53
2018-12-25T06:29:34.069Z,10.43
2018-12-25T06:30:50.710Z,12.00
2018-12-25T06:32:07.618Z,9.43
2018-12-25T06:33:25.058Z,10.97
2018-12-25T06:34:42.592Z,13.77
2018-12-25T06:35:59.166Z,11.17
2018-12-25T06:37:15.739Z,13.00
2018-12-25T06:38:32.356Z,9.93
2018-12-25T06:39:48.890Z,11.60
2018-12-25T06:41:06.345Z,10.67
2018-12-25T06:42:23.071Z,9.43
2018-12-25T06:43:39.709Z,10.63
2018-12-25T06:44:56.342Z,11.03
2018-12-25T06:46:12.809Z,11.37
2018-12-25T06:47:29.368Z,10.20
2018-12-25T06:48:46.020Z,12.35
2018-12-25T06:50:02.493Z,12.05
2018-12-25T06:51:19.181Z,10.25
2018-12-25T06:52:35.717Z,10.48
2018-12-25T06:53:52.628Z,9.90
2018-12-25T06:55:09.249Z,11.20
2018-12-25T06:56:25.852Z,12.13
2018-12-25T06:57:42.419Z,13.55
2018-12-25T06:58:59.087Z,12.98
2018-12-25T07:00:16.404Z,12.63
2018-12-25T07:01:33.073Z,12.13
2018-12-25T07:02:49.708Z,11.50
2018-12-25T07:04:06.368Z,11.08
2018-12-25T07:05:23.040Z,12.70
2018-12-25T07:06:40.381Z,12.63
2018-12-25T07:07:57.154Z,10.83
2018-12-25T07:09:13.822Z,9.50
2018-12-25T07:10:30.524Z,11.47
2018-12-25T07:11:47.850Z,10.18
2018-12-25T07:13:04.409Z,9.43
2018-12-25T07:14:09.708Z,13.17
2018-12-25T07:15:34.146Z,11.63
2018-12-25T07:16:51.613Z,9.70
2018-12-25T07:18:08.952Z,11.10
2018-12-25T07:19:25.519Z,10.50
2018-12-25T07:20:42.871Z,10.43
2018-12-25T07:21:59.389Z,11.40
2018-12-25T07:23:16.798Z,10.53
2018-12-25T07:24:33.359Z,12.65
2018-12-25T07:25:49.938Z,11.07
2018-12-25T07:27:07.388Z,10.60
2018-12-25T07:28:23.961Z,11.00
2018-12-25T07:29:40.474Z,13.13
2018-12-25T07:30:57.124Z,9.00
2018-12-25T07:32:13.617Z,14.27
2018-12-25T07:33:31.187Z,10.87
2018-12-25T07:34:48.618Z,13.30
2018-12-25T07:35:53.914Z,11.27
2018-12-25T07:37:18.316Z,10.50
2018-12-25T07:38:23.655Z,12.10
2018-12-25T07:39:28.898Z,9.30
2018-12-25T07:40:34.206Z,13.37
2018-12-25T07:41:52.370Z,12.97
2018-12-25T07:42:57.624Z,9.53
2018-12-25T07:44:02.894Z,12.97
2018-12-25T07:45:21.182Z,11.65
2018-12-25T07:46:37.744Z,10.87
2018-12-25T07:47:55.196Z,11.13
2018-12-25T07:49:11.786Z,10.00
2018-12-25T07:50:28.331Z,9.13
2018-12-25T07:51:45.673Z,10.50
2018-12-25T07:53:02.374Z,10.93
2018-12-25T07:54:19.039Z,10.70
2018-12-25T07:55:35.634Z,10.50
2018-12-25T07:56:53.108Z,10.60
2018-12-25T07:58:10.312Z,11.70
2018-12-25T07:59:26.866Z,9.57
2018-12-25T08:00:43.434Z,10.93
2018-12-25T08:02:00.826Z,9.37
2018-12-25T08:03:18.213Z,10.13
2018-12-25T08:04:34.862Z,12.60
2018-12-25T08:05:53.619Z,11.97
2018-12-25T08:07:10.956Z,10.13
2018-12-25T08:08:27.563Z,9.83
2018-12-25T08:09:44.923Z,10.97
2018-12-25T08:11:02.292Z,9.60
2018-12-25T08:12:18.768Z,11.47
2018-12-25T08:13:35.572Z,9.18
2018-12-25T08:14:52.247Z,9.50
2018-12-25T08:16:08.903Z,10.15
2018-12-25T08:17:25.571Z,9.30
2018-12-25T08:18:43.076Z,13.48
2018-12-25T08:20:00.404Z,9.83
2018-12-25T08:21:17.774Z,10.50
2018-12-25T08:22:35.122Z,10.20
2018-12-25T08:23:52.236Z,8.63
2018-12-25T08:25:08.807Z,11.53
2018-12-25T08:26:26.195Z,11.43
2018-12-25T08:27:43.123Z,10.00
2018-12-25T08:28:59.747Z,10.67
2018-12-25T08:30:16.647Z,11.03
2018-12-25T08:31:33.192Z,12.67
2018-12-25T08:32:49.912Z,12.47
2018-12-25T08:34:07.232Z,10.23
2018-12-25T08:35:25.523Z,11.83
2018-12-25T08:36:42.107Z,10.67
2018-12-25T08:38:00.524Z,10.27
2018-12-25T08:39:17.941Z,11.13
2018-12-25T08:40:35.433Z,10.17
2018-12-25T08:41:51.967Z,11.67
2018-12-25T08:43:09.181Z,9.77
2018-12-25T08:44:25.906Z,11.57
2018-12-25T08:45:43.293Z,10.73
2018-12-25T08:47:02.765Z,8.58
2018-12-25T08:48:19.302Z,9.08
2018-12-25T08:49:35.770Z,13.80
2018-12-25T08:50:53.103Z,10.70
2018-12-25T08:52:09.709Z,10.57
2018-12-25T08:53:26.502Z,10.30
2018-12-25T08:54:43.080Z,11.57
2018-12-25T08:55:59.750Z,12.93
2018-12-25T08:57:16.471Z,9.63
2018-12-25T08:58:21.731Z,9.13
2018-12-25T08:59:46.029Z,11.70
2018-12-25T09:01:02.669Z,11.57
2018-12-25T09:02:19.278Z,8.43
2018-12-25T09:03:35.924Z,9.10
2018-12-25T09:04:52.279Z,9.13
2018-12-25T09:06:08.892Z,9.93
2018-12-25T09:07:25.477Z,11.37
2018-12-25T09:08:42.129Z,8.60
2018-12-25T09:09:58.760Z,9.25
2018-12-25T09:14:29.254Z,9.20
2018-12-25T09:15:46.020Z,10.53
2018-12-25T09:17:03.435Z,10.13
2018-12-25T09:18:20.242Z,12.03
2018-12-25T09:19:25.425Z,9.73
2018-12-25T09:20:49.777Z,10.87
2018-12-25T09:22:07.189Z,11.40
2018-12-25T09:24:27.855Z,10.00
2018-12-25T09:25:33.168Z,8.80
2018-12-25T09:26:57.509Z,13.03
2018-12-25T09:28:14.796Z,9.73
2018-12-25T09:29:32.174Z,8.73
2018-12-25T09:30:48.964Z,9.83
2018-12-25T09:32:06.344Z,9.43
2018-12-25T09:33:22.862Z,10.10
2018-12-25T09:34:40.302Z,12.37
2018-12-25T09:35:57.601Z,10.83
2018-12-25T09:37:14.230Z,10.40
2018-12-25T09:38:31.686Z,8.90
2018-12-25T09:39:48.402Z,14.20
2018-12-25T09:41:04.962Z,9.37
2018-12-25T09:42:21.560Z,11.33
2018-12-25T09:43:38.159Z,9.80
2018-12-25T09:44:55.184Z,9.87
2018-12-25T09:46:11.699Z,12.03
2018-12-25T09:47:28.644Z,9.87
2018-12-25T09:48:45.373Z,10.57
2018-12-25T09:50:01.793Z,8.60
2018-12-25T09:51:20.132Z,12.33
2018-12-25T09:52:36.832Z,11.47
2018-12-25T09:53:54.082Z,14.17
2018-12-25T09:55:10.538Z,12.13
2018-12-25T09:56:27.081Z,12.87
2018-12-25T09:57:43.655Z,8.83
2018-12-25T09:59:00.357Z,12.90
2018-12-25T10:00:16.787Z,11.60
2018-12-25T10:01:33.317Z,10.37
2018-12-25T10:02:50.839Z,9.20
2018-12-25T10:04:08.177Z,9.53
2018-12-25T10:05:25.334Z,11.30
2018-12-25T10:06:30.598Z,12.90
2018-12-25T10:07:38.269Z,12.33
2018-12-25T10:08:43.610Z,13.07
2018-12-25T10:10:00.814Z,12.37
2018-12-25T10:11:17.161Z,9.63
2018-12-25T10:12:34.607Z,11.43
2018-12-25T10:13:52.042Z,11.93
2018-12-25T10:15:08.608Z,12.87
2018-12-25T10:16:25.236Z,11.60
2018-12-25T10:17:41.700Z,9.77
2018-12-25T10:18:59.063Z,10.50
2018-12-25T10:20:15.709Z,11.50
2018-12-25T10:21:32.292Z,11.77
2018-12-25T10:22:48.900Z,11.87
2018-12-25T10:24:05.766Z,11.47
2018-12-25T10:25:23.048Z,11.67
2018-12-25T10:26:39.620Z,9.77
2018-12-25T10:27:56.983Z,11.10
2018-12-25T10:29:13.750Z,13.93
2018-12-25T10:30:30.315Z,10.40
2018-12-25T10:31:46.813Z,10.87
2018-12-25T10:33:03.438Z,9.27
2018-12-25T10:34:20.932Z,13.00
2018-12-25T10:35:37.419Z,11.13
2018-12-25T10:36:53.892Z,11.97
2018-12-25T10:38:10.517Z,11.80
2018-12-25T10:39:27.806Z,10.27
2018-12-25T10:40:44.824Z,8.90
2018-12-25T10:42:01.639Z,11.57
2018-12-25T10:43:19.058Z,11.07
2018-12-25T10:44:35.612Z,11.33
2018-12-25T10:45:52.210Z,12.83
2018-12-25T10:47:08.964Z,10.80
2018-12-25T10:48:26.431Z,10.20
2018-12-25T10:49:42.954Z,9.23
2018-12-25T10:50:59.569Z,9.43
2018-12-25T10:52:17.056Z,13.27
2018-12-25T10:53:33.915Z,9.70
2018-12-25T10:54:51.077Z,13.97
2018-12-25T10:56:07.663Z,16.57
2018-12-25T10:57:25.057Z,31.37
2018-12-25T10:58:41.680Z,12.07
2018-12-25T10:59:58.346Z,11.60
2018-12-25T11:01:16.035Z,10.97
2018-12-25T11:02:32.621Z,11.47
2018-12-25T11:03:37.952Z,9.57
2018-12-25T11:04:43.213Z,10.23
2018-12-25T11:06:07.579Z,11.47
2018-12-25T11:07:12.858Z,11.73
2018-12-25T11:08:18.171Z,11.43
2018-12-25T11:09:34.954Z,13.43
2018-12-25T11:10:52.402Z,10.13
2018-12-25T11:12:09.204Z,10.67
2018-12-25T11:13:25.743Z,10.77
2018-12-25T11:14:42.473Z,10.33
2018-12-25T11:15:59.858Z,10.20
2018-12-25T11:17:17.209Z,10.13
2018-12-25T11:18:34.767Z,9.23
2018-12-25T11:19:51.334Z,10.63
2018-12-25T11:21:07.891Z,9.63
2018-12-25T11:22:25.353Z,10.77
2018-12-25T11:23:41.803Z,10.33
2018-12-25T11:24:59.313Z,10.57
2018-12-25T11:26:04.535Z,8.47
2018-12-25T11:27:09.740Z,11.43
2018-12-25T11:28:15.018Z,8.70
2018-12-25T11:29:20.282Z,9.93
2018-12-25T11:30:25.632Z,11.10
2018-12-25T11:31:30.956Z,9.77
2018-12-25T11:32:36.246Z,10.00
2018-12-25T11:33:41.447Z,11.00
2018-12-25T11:34:46.748Z,10.13
2018-12-25T11:35:52.007Z,8.77
2018-12-25T11:36:57.326Z,12.17
2018-12-25T11:38:02.598Z,9.33
2018-12-25T11:39:08.227Z,10.47
2018-12-25T11:40:13.411Z,9.63
2018-12-25T11:41:18.801Z,8.13
2018-12-25T11:42:24.051Z,10.80
2018-12-25T11:43:29.358Z,10.53
2018-12-25T11:44:34.524Z,9.60
2018-12-25T11:45:39.694Z,9.97
2018-12-25T11:46:44.978Z,9.63
2018-12-25T11:47:50.246Z,9.47
2018-12-25T11:48:55.435Z,10.23
2018-12-25T11:50:00.687Z,13.43
2018-12-25T11:51:05.954Z,10.13
2018-12-25T11:52:11.259Z,11.03
2018-12-25T11:53:16.516Z,9.57
2018-12-25T11:54:21.682Z,11.77
2018-12-25T11:55:26.953Z,10.53
2018-12-25T11:56:32.302Z,13.30
2018-12-25T11:57:37.632Z,9.30
2018-12-25T11:58:42.896Z,8.83
2018-12-25T11:59:48.175Z,11.40
2018-12-25T12:00:53.487Z,8.63
2018-12-25T12:01:58.684Z,9.73
2018-12-25T12:03:04.001Z,10.00
2018-12-25T12:04:09.196Z,10.80
2018-12-25T12:05:14.480Z,12.67
2018-12-25T12:06:19.736Z,9.90
2018-12-25T12:07:24.939Z,10.90
2018-12-25T12:08:30.541Z,12.93
2018-12-25T12:09:35.819Z,10.17
2018-12-25T12:10:41.104Z,11.60
2018-12-25T12:11:46.393Z,9.73
2018-12-25T12:12:51.651Z,11.20
2018-12-25T12:13:56.796Z,12.87
2018-12-25T12:15:01.993Z,11.33
2018-12-25T12:16:07.256Z,13.90
2018-12-25T12:17:12.550Z,10.07
2018-12-25T12:18:17.836Z,12.20
2018-12-25T12:19:23.062Z,10.97
2018-12-25T12:20:28.322Z,12.10
2018-12-25T12:21:34.123Z,12.50
2018-12-25T12:22:39.436Z,10.97
2018-12-25T12:23:44.609Z,9.20
2018-12-25T12:24:49.858Z,11.77
2018-12-25T12:25:55.193Z,11.47
2018-12-25T12:27:00.497Z,10.63
2018-12-25T12:28:05.840Z,11.87
2018-12-25T12:29:11.119Z,8.70
2018-12-25T12:30:16.381Z,10.17
2018-12-25T12:31:21.751Z,9.77
2018-12-25T12:32:27.019Z,9.83
2018-12-25T12:33:32.497Z,11.23
2018-12-25T12:34:37.761Z,9.87
2018-12-25T12:35:43.044Z,10.50
2018-12-25T12:36:48.334Z,10.27
2018-12-25T12:37:53.617Z,11.37
2018-12-25T12:38:58.739Z,12.90
2018-12-25T12:40:03.892Z,11.43
2018-12-25T12:41:09.254Z,13.27
2018-12-25T12:42:14.586Z,8.67
2018-12-25T12:43:19.793Z,11.37
2018-12-25T12:44:24.992Z,10.87
2018-12-25T12:45:30.297Z,10.67
2018-12-25T12:46:35.658Z,11.70
2018-12-25T12:47:40.942Z,17.10
2018-12-25T12:48:46.086Z,10.93
2018-12-25T12:49:51.466Z,11.23
2018-12-25T12:50:56.680Z,12.23
2018-12-25T12:52:01.928Z,9.93
2018-12-25T12:53:07.167Z,12.87
2018-12-25T12:54:12.398Z,11.83
2018-12-25T12:55:17.588Z,10.90
2018-12-25T12:56:22.784Z,13.80
2018-12-25T12:57:28.641Z,10.90
2018-12-25T12:58:33.858Z,11.90
2018-12-25T12:59:39.144Z,10.13
2018-12-25T13:00:44.384Z,14.63
2018-12-25T13:01:49.663Z,12.13
2018-12-25T13:02:54.954Z,10.97
2018-12-25T13:04:00.132Z,13.60
2018-12-25T13:05:06.444Z,13.33
2018-12-25T13:06:11.749Z,11.57
2018-12-25T13:07:16.967Z,10.50
2018-12-25T13:08:22.246Z,11.93
2018-12-25T13:09:27.543Z,11.87
2018-12-25T13:10:32.918Z,10.13
2018-12-25T13:11:38.199Z,11.77
2018-12-25T13:12:43.516Z,12.77
2018-12-25T13:13:48.804Z,12.30
2018-12-25T13:14:54.055Z,12.13
2018-12-25T13:15:59.382Z,13.73
2018-12-25T13:17:04.685Z,12.23
2018-12-25T13:18:10.163Z,12.70
2018-12-25T13:19:15.491Z,15.20
2018-12-25T13:20:20.834Z,15.87
2018-12-25T13:21:26.129Z,13.53
2018-12-25T13:22:31.426Z,13.57
2018-12-25T13:23:36.761Z,12.80
2018-12-25T13:24:42.072Z,12.03
2018-12-25T13:25:50.344Z,11.27
2018-12-25T13:26:55.613Z,13.83
2018-12-25T13:28:00.750Z,15.17
2018-12-25T13:29:06.003Z,12.37
2018-12-25T13:30:11.176Z,14.03
2018-12-25T13:31:16.518Z,13.33
2018-12-25T13:32:21.802Z,14.53
2018-12-25T13:33:27.130Z,12.50
2018-12-25T13:34:32.425Z,13.17
2018-12-25T13:35:37.988Z,12.87
2018-12-25T13:36:43.360Z,11.90
2018-12-25T13:37:48.560Z,13.43
2018-12-25T13:38:53.840Z,14.33
2018-12-25T13:39:59.010Z,15.73
2018-12-25T13:41:04.318Z,13.93
2018-12-25T13:42:09.648Z,11.87
2018-12-25T13:43:14.942Z,14.40
2018-12-25T13:44:20.200Z,13.47
2018-12-25T13:45:25.536Z,14.30
2018-12-25T13:46:30.850Z,13.53
2018-12-25T13:47:36.181Z,15.17
2018-12-25T13:48:41.526Z,14.50
2018-12-25T13:49:46.812Z,14.10
2018-12-25T13:50:52.078Z,11.97
2018-12-25T13:51:57.420Z,14.73
2018-12-25T13:53:03.368Z,13.70
2018-12-25T13:54:09.859Z,14.50
2018-12-25T13:55:16.252Z,16.13
2018-12-25T13:56:21.635Z,15.73
2018-12-25T13:57:26.874Z,16.67
2018-12-25T13:58:32.097Z,15.20
2018-12-25T13:59:37.466Z,17.80
2018-12-25T14:00:42.793Z,14.90
2018-12-25T14:01:48.186Z,14.17
2018-12-25T14:02:53.335Z,18.77
2018-12-25T14:03:58.656Z,13.93
2018-12-25T14:05:03.998Z,17.57
2018-12-25T14:06:09.458Z,16.33
2018-12-25T14:07:15.611Z,14.70
2018-12-25T14:08:22.200Z,14.87
2018-12-25T14:09:27.551Z,15.87
2018-12-25T14:10:32.855Z,14.73
2018-12-25T14:11:38.680Z,16.57
2018-12-25T14:12:43.941Z,16.93
2018-12-25T14:13:49.234Z,15.20
2018-12-25T14:14:57.801Z,17.17
2018-12-25T14:16:03.160Z,17.87
2018-12-25T14:17:08.557Z,16.40
2018-12-25T14:18:13.882Z,16.83
2018-12-25T14:19:19.161Z,19.50
2018-12-25T14:20:24.472Z,19.37
2018-12-25T14:21:29.815Z,23.90
2018-12-25T14:22:35.006Z,16.93
2018-12-25T14:23:40.368Z,20.63
2018-12-25T14:24:45.784Z,19.57
2018-12-25T14:25:50.975Z,23.03
2018-12-25T14:26:56.210Z,17.93
2018-12-25T14:28:01.546Z,17.47
2018-12-25T14:29:06.788Z,20.50
2018-12-25T14:30:12.042Z,21.53
2018-12-25T14:31:17.316Z,16.67
2018-12-25T14:32:22.560Z,19.87
2018-12-25T14:33:27.839Z,22.60
2018-12-25T14:34:33.142Z,20.10
2018-12-25T14:35:38.527Z,21.43
2018-12-25T14:36:43.907Z,19.93
2018-12-25T14:37:49.140Z,21.23
2018-12-25T14:38:54.394Z,17.27
2018-12-25T14:39:59.583Z,21.47
2018-12-25T14:41:04.864Z,18.83
2018-12-25T14:42:10.095Z,20.33
2018-12-25T14:43:15.363Z,22.37
2018-12-25T14:44:20.656Z,20.67
2018-12-25T14:45:26.013Z,19.17
2018-12-25T14:46:31.410Z,20.43
2018-12-25T14:47:36.753Z,21.23
2018-12-25T14:48:42.063Z,18.17
2018-12-25T14:49:47.301Z,26.60
2018-12-25T14:50:52.606Z,19.90
2018-12-25T14:51:57.912Z,21.70
2018-12-25T14:53:03.168Z,21.87
2018-12-25T14:54:08.381Z,22.80
2018-12-25T14:55:13.781Z,25.20
2018-12-25T14:56:19.057Z,22.20
2018-12-25T14:57:24.413Z,25.23
2018-12-25T14:58:29.602Z,24.73
2018-12-25T14:59:34.913Z,25.97
2018-12-25T15:00:40.306Z,23.40
2018-12-25T15:01:45.658Z,28.93
2018-12-25T15:02:50.883Z,23.63
2018-12-25T15:03:56.162Z,22.40
2018-12-25T15:05:01.474Z,21.90
2018-12-25T15:06:06.848Z,22.77
2018-12-25T15:07:12.170Z,23.70